createdAt,value
2022-09-25T00:00:51.875Z,31.60
2022-09-25T00:03:19.957Z,28.90
2022-09-25T00:05:47.602Z,33.73
2022-09-25T00:08:16.374Z,33.67
2022-09-25T00:10:45.925Z,32.57
2022-09-25T00:13:13.394Z,32.80
2022-09-25T00:15:50.104Z,32.63
2022-09-25T00:18:38.150Z,31.40
2022-09-25T00:21:06.252Z,31.37
2022-09-25T00:23:34.522Z,31.33
2022-09-25T00:26:02.723Z,35.20
2022-09-25T00:28:29.634Z,29.80
2022-09-25T00:30:57.104Z,30.07
2022-09-25T00:33:24.600Z,30.60
2022-09-25T00:35:51.657Z,27.03
2022-09-25T00:38:18.699Z,30.67
2022-09-25T00:40:45.723Z,28.70
2022-09-25T00:43:34.017Z,30.80
2022-09-25T00:46:05.582Z,27.00
2022-09-25T00:48:32.687Z,31.03
2022-09-25T00:51:01.189Z,25.60
2022-09-25T00:53:34.851Z,23.97
2022-09-25T00:56:05.238Z,27.73
2022-09-25T00:58:35.209Z,25.90
2022-09-25T01:01:02.245Z,25.83
2022-09-25T01:03:29.464Z,23.53
2022-09-25T01:05:58.259Z,23.43
2022-09-25T01:08:27.853Z,23.57
2022-09-25T01:10:55.773Z,25.97
2022-09-25T01:13:23.513Z,23.93
2022-09-25T01:16:20.458Z,25.00
2022-09-25T01:19:39.079Z,27.33
2022-09-25T01:22:30.351Z,34.33
2022-09-25T01:25:09.595Z,26.80
2022-09-25T01:28:04.436Z,31.23
2022-09-25T01:30:39.268Z,28.00
2022-09-25T01:33:18.791Z,28.50
2022-09-25T01:36:13.181Z,29.23
2022-09-25T01:38:46.094Z,27.77
2022-09-25T01:41:28.465Z,28.07
2022-09-25T01:44:14.195Z,27.33
2022-09-25T01:46:46.681Z,30.83
2022-09-25T01:49:29.647Z,30.20
2022-09-25T01:51:58.534Z,28.80
2022-09-25T01:54:47.587Z,30.83
2022-09-25T01:57:26.269Z,25.70
2022-09-25T02:00:05.815Z,25.70
2022-09-25T02:03:04.819Z,23.13
2022-09-25T02:05:46.920Z,22.97
2022-09-25T02:08:30.965Z,19.23
2022-09-25T02:11:02.361Z,19.47
2022-09-25T02:13:49.583Z,15.67
2022-09-25T02:16:43.830Z,17.13
2022-09-25T02:19:35.595Z,15.17
2022-09-25T02:22:15.140Z,12.57
2022-09-25T02:24:59.110Z,11.80
2022-09-25T02:27:28.437Z,11.37
2022-09-25T02:29:58.490Z,10.20
2022-09-25T02:32:30.361Z,9.17
2022-09-25T02:34:58.396Z,9.20
2022-09-25T02:37:26.365Z,10.30
2022-09-25T02:39:58.019Z,7.57
2022-09-25T02:42:30.556Z,7.60
2022-09-25T02:45:03.439Z,6.90
2022-09-25T02:47:56.153Z,6.90
2022-09-25T02:50:50.625Z,7.07
2022-09-25T02:53:26.733Z,7.80
2022-09-25T02:56:18.620Z,7.37
2022-09-25T02:58:52.485Z,6.57
2022-09-25T03:01:22.366Z,8.63
2022-09-25T03:03:53.413Z,8.13
2022-09-25T03:06:22.264Z,8.77
2022-09-25T03:08:54.282Z,6.33
2022-09-25T03:11:22.011Z,9.90
2022-09-25T03:14:00.518Z,8.40
2022-09-25T03:16:27.469Z,6.57
2022-09-25T03:18:54.535Z,7.00
2022-09-25T03:21:21.574Z,8.00
2022-09-25T03:23:48.501Z,8.30
2022-09-25T03:26:15.520Z,7.73
2022-09-25T03:28:42.488Z,7.00
2022-09-25T03:31:11.913Z,6.33
2022-09-25T03:33:41.748Z,8.50
2022-09-25T03:36:13.096Z,5.77
2022-09-25T03:38:41.617Z,8.20
2022-09-25T03:41:10.879Z,6.57
2022-09-25T03:43:39.676Z,6.10
2022-09-25T03:46:08.982Z,5.47
2022-09-25T03:48:36.564Z,5.67
2022-09-25T03:51:04.828Z,6.37
2022-09-25T03:53:33.632Z,9.07
2022-09-25T03:56:02.434Z,10.20
2022-09-25T03:58:29.618Z,9.70
2022-09-25T04:00:57.469Z,9.43
2022-09-25T04:03:28.019Z,12.83
2022-09-25T04:05:56.507Z,9.37
2022-09-25T04:08:25.993Z,9.90
2022-09-25T04:10:59.307Z,10.00
2022-09-25T04:13:31.960Z,12.83
2022-09-25T04:16:01.290Z,11.43
2022-09-25T04:18:31.815Z,14.13
2022-09-25T04:21:04.303Z,14.97
2022-09-25T04:23:32.436Z,15.57
2022-09-25T04:25:59.530Z,22.47
2022-09-25T04:28:27.578Z,20.97
2022-09-25T04:30:54.511Z,21.47
2022-09-25T04:33:39.822Z,23.97
2022-09-25T04:36:07.331Z,22.97
2022-09-25T04:38:34.459Z,24.87
2022-09-25T04:41:02.017Z,26.40
2022-09-25T04:43:30.063Z,26.10
2022-09-25T04:46:01.873Z,28.43
2022-09-25T04:48:29.521Z,27.00
2022-09-25T04:50:56.642Z,27.97
2022-09-25T04:53:24.063Z,28.57
2022-09-25T04:55:51.785Z,31.60
2022-09-25T04:58:19.251Z,26.93
2022-09-25T05:00:46.463Z,28.43
2022-09-25T05:03:13.640Z,28.43
2022-09-25T05:05:40.777Z,26.10
2022-09-25T05:08:07.770Z,27.03
2022-09-25T05:10:35.135Z,27.13
2022-09-25T05:13:03.908Z,26.03
2022-09-25T05:15:33.191Z,26.60
2022-09-25T05:18:05.736Z,25.70
2022-09-25T05:20:33.204Z,24.87
2022-09-25T05:23:00.246Z,24.23
2022-09-25T05:25:27.811Z,25.50
2022-09-25T05:27:57.732Z,27.83
2022-09-25T05:30:26.146Z,26.07
2022-09-25T05:32:54.167Z,27.60
2022-09-25T05:35:24.110Z,31.23
2022-09-25T05:37:51.248Z,26.53
2022-09-25T05:40:21.091Z,30.10
2022-09-25T05:42:48.564Z,33.50
2022-09-25T05:45:16.568Z,29.80
2022-09-25T05:47:44.410Z,30.13
2022-09-25T05:50:14.700Z,28.43
2022-09-25T05:52:41.812Z,29.57
2022-09-25T05:55:10.815Z,31.73
2022-09-25T05:57:38.842Z,28.70
2022-09-25T06:00:09.834Z,36.00
2022-09-25T06:02:39.587Z,33.17
2022-09-25T06:05:07.222Z,34.93
2022-09-25T06:07:34.215Z,30.57
2022-09-25T06:10:01.262Z,33.57
2022-09-25T06:12:31.922Z,33.23
2022-09-25T06:14:58.921Z,33.03
2022-09-25T06:17:25.899Z,35.63
2022-09-25T06:19:52.882Z,31.33
2022-09-25T06:22:19.872Z,33.37
2022-09-25T06:24:48.697Z,31.87
2022-09-25T06:27:15.647Z,33.23
2022-09-25T06:29:44.088Z,32.70
2022-09-25T06:32:11.144Z,31.87
2022-09-25T06:34:38.077Z,33.17
2022-09-25T06:37:05.059Z,31.03
2022-09-25T06:39:33.339Z,32.93
2022-09-25T06:42:00.322Z,35.43
2022-09-25T06:44:28.359Z,34.83
2022-09-25T06:46:55.338Z,35.43
2022-09-25T06:49:22.395Z,37.30
2022-09-25T06:51:51.150Z,40.70
2022-09-25T06:54:18.455Z,40.37
2022-09-25T06:56:49.885Z,43.03
2022-09-25T06:59:17.541Z,46.03
2022-09-25T07:01:44.605Z,45.30
2022-09-25T07:04:11.698Z,43.57
2022-09-25T07:06:38.970Z,46.20
2022-09-25T07:09:06.021Z,42.93
2022-09-25T07:11:33.062Z,37.87
2022-09-25T07:14:00.129Z,41.20
2022-09-25T07:16:30.308Z,43.87
2022-09-25T07:19:03.376Z,36.80
2022-09-25T07:21:32.378Z,38.27
2022-09-25T07:23:59.570Z,37.37
2022-09-25T07:26:29.044Z,35.90
2022-09-25T07:28:58.473Z,32.83
2022-09-25T07:31:28.538Z,33.17
2022-09-25T07:33:55.767Z,30.27
2022-09-25T07:36:22.810Z,30.93
2022-09-25T07:38:51.153Z,33.40
2022-09-25T07:41:19.855Z,34.13
2022-09-25T07:43:46.969Z,32.13
2022-09-25T07:46:14.019Z,31.63
2022-09-25T07:48:41.119Z,30.43
2022-09-25T07:51:10.601Z,30.83
2022-09-25T07:53:38.963Z,31.40
2022-09-25T07:56:07.113Z,30.67
2022-09-25T07:58:35.866Z,29.93
2022-09-25T08:01:05.276Z,30.47
2022-09-25T08:03:32.693Z,28.93
2022-09-25T08:06:09.626Z,29.50
2022-09-25T08:08:36.631Z,30.53
2022-09-25T08:11:07.112Z,30.67
2022-09-25T08:13:35.471Z,30.47
2022-09-25T08:16:03.591Z,29.57
2022-09-25T08:18:30.689Z,29.30
2022-09-25T08:21:05.059Z,33.03
2022-09-25T08:23:32.624Z,26.83
2022-09-25T08:26:00.489Z,27.87
2022-09-25T08:28:27.848Z,28.63
2022-09-25T08:30:54.881Z,29.13
2022-09-25T08:33:21.897Z,28.57
2022-09-25T08:36:00.409Z,27.77
2022-09-25T08:38:28.678Z,30.33
2022-09-25T08:40:58.735Z,29.20
2022-09-25T08:43:26.677Z,31.67
2022-09-25T08:46:13.955Z,32.53
2022-09-25T08:49:02.799Z,32.40
2022-09-25T08:51:32.481Z,29.93
2022-09-25T08:54:00.830Z,31.90
2022-09-25T08:56:29.433Z,32.50
2022-09-25T08:59:29.184Z,31.57
2022-09-25T09:02:11.363Z,32.70
2022-09-25T09:05:01.214Z,33.97
2022-09-25T09:07:42.682Z,34.03
2022-09-25T09:10:18.632Z,33.27
2022-09-25T09:12:50.387Z,34.10
2022-09-25T09:15:36.911Z,34.40
2022-09-25T09:18:25.620Z,30.20
2022-09-25T09:21:27.524Z,30.57
2022-09-25T09:24:08.767Z,31.63
2022-09-25T09:27:17.192Z,27.73
2022-09-25T09:29:53.378Z,29.60
2022-09-25T09:32:29.723Z,30.37
2022-09-25T09:35:20.597Z,24.83
2022-09-25T09:38:15.301Z,27.97
2022-09-25T09:41:01.044Z,28.40
2022-09-25T09:43:46.158Z,25.00
2022-09-25T09:46:40.484Z,27.63
2022-09-25T09:49:45.960Z,25.30
2022-09-25T09:52:17.729Z,22.70
2022-09-25T09:55:13.498Z,26.03
2022-09-25T09:57:48.913Z,25.47
2022-09-25T10:00:18.221Z,27.47
2022-09-25T10:02:52.895Z,24.07
2022-09-25T10:05:46.675Z,24.60
2022-09-25T10:08:13.942Z,20.53
2022-09-25T10:10:43.473Z,20.33
2022-09-25T10:13:37.262Z,18.50
2022-09-25T10:16:14.657Z,21.60
2022-09-25T10:18:57.367Z,17.37
2022-09-25T10:21:29.664Z,20.63
2022-09-25T10:23:58.602Z,18.00
2022-09-25T10:26:28.594Z,19.20
2022-09-25T10:29:00.472Z,19.60
2022-09-25T10:31:39.744Z,19.43
2022-09-25T10:34:17.669Z,17.00
2022-09-25T10:36:53.877Z,18.27
2022-09-25T10:39:43.091Z,18.80
2022-09-25T10:42:37.850Z,19.30
2022-09-25T10:45:30.945Z,19.17
2022-09-25T10:48:16.382Z,19.87
2022-09-25T10:50:44.144Z,18.73
2022-09-25T10:53:30.699Z,19.80
2022-09-25T10:56:09.432Z,18.97
2022-09-25T10:58:43.299Z,19.33
2022-09-25T11:01:13.423Z,19.07
2022-09-25T11:03:55.230Z,19.03
2022-09-25T11:06:27.388Z,17.57
2022-09-25T11:09:11.669Z,19.97
2022-09-25T11:11:39.948Z,19.13
2022-09-25T11:14:22.663Z,18.87
2022-09-25T11:16:58.069Z,17.33
2022-09-25T11:19:29.807Z,18.73
2022-09-25T11:22:19.704Z,16.57
2022-09-25T11:25:11.883Z,17.03
2022-09-25T11:27:44.538Z,17.50
2022-09-25T11:30:18.701Z,16.87
2022-09-25T11:33:03.070Z,17.30
2022-09-25T11:36:02.279Z,16.87
2022-09-25T11:38:53.643Z,16.07
2022-09-25T11:41:31.632Z,16.70
2022-09-25T11:44:27.804Z,17.27
2022-09-25T11:47:15.880Z,17.03
2022-09-25T11:49:43.157Z,16.80
2022-09-25T11:52:18.968Z,16.73
2022-09-25T11:55:02.364Z,15.40
2022-09-25T11:57:52.837Z,15.43
2022-09-25T12:00:26.355Z,15.20
2022-09-25T12:03:21.015Z,15.97
2022-09-25T12:06:05.750Z,14.93
2022-09-25T12:08:57.299Z,14.63
2022-09-25T12:11:45.906Z,15.83
2022-09-25T12:14:45.295Z,14.93
2022-09-25T12:17:55.377Z,16.10
2022-09-25T12:20:25.080Z,15.57
2022-09-25T12:23:14.265Z,15.67
2022-09-25T12:26:02.640Z,14.47
2022-09-25T12:28:52.304Z,14.50
2022-09-25T12:31:57.249Z,15.37
2022-09-25T12:35:22.185Z,18.17
2022-09-25T12:38:11.880Z,17.33
2022-09-25T12:40:57.485Z,16.53
2022-09-25T12:43:33.546Z,17.53
2022-09-25T12:46:35.260Z,15.60
2022-09-25T12:49:23.302Z,15.83
2022-09-25T12:51:52.065Z,18.37
2022-09-25T12:54:32.572Z,19.13
2022-09-25T12:57:09.676Z,16.83
2022-09-25T12:59:57.837Z,15.87
2022-09-25T13:03:02.183Z,17.10
2022-09-25T13:05:46.490Z,16.10
2022-09-25T13:08:35.699Z,16.50
2022-09-25T13:11:13.489Z,16.50
2022-09-25T13:13:49.779Z,17.17
2022-09-25T13:16:17.221Z,17.43
2022-09-25T13:19:23.574Z,17.63
2022-09-25T13:21:50.716Z,15.73
2022-09-25T13:24:18.489Z,17.13
2022-09-25T13:26:52.829Z,14.70
2022-09-25T13:29:28.076Z,16.80
2022-09-25T13:32:29.008Z,16.63
2022-09-25T13:35:00.458Z,16.47
2022-09-25T13:37:31.967Z,15.27
2022-09-25T13:40:19.161Z,16.70
2022-09-25T13:42:47.689Z,16.73
2022-09-25T13:45:37.429Z,16.43
2022-09-25T13:48:30.328Z,17.93
2022-09-25T13:51:22.284Z,17.33
2022-09-25T13:54:00.145Z,18.00
2022-09-25T13:56:33.882Z,18.80
2022-09-25T13:59:02.417Z,18.03
2022-09-25T14:01:42.374Z,19.30
2022-09-25T14:04:15.277Z,17.90
2022-09-25T14:06:44.794Z,17.57
2022-09-25T14:09:20.825Z,17.60
2022-09-25T14:12:00.005Z,16.83
2022-09-25T14:14:42.601Z,15.53
2022-09-25T14:17:16.591Z,18.30
2022-09-25T14:19:47.264Z,16.37
2022-09-25T14:22:36.317Z,18.97
2022-09-25T14:25:03.360Z,17.90
2022-09-25T14:27:30.387Z,18.80
2022-09-25T14:30:11.270Z,18.67
2022-09-25T14:33:05.486Z,18.43
2022-09-25T14:35:47.830Z,17.53
2022-09-25T14:38:37.216Z,17.80
2022-09-25T14:41:22.630Z,17.17
2022-09-25T14:44:03.716Z,16.80
2022-09-25T14:46:34.293Z,16.83
2022-09-25T14:49:24.235Z,16.80
2022-09-25T14:51:54.849Z,16.07
2022-09-25T14:54:25.149Z,16.80
2022-09-25T14:56:56.736Z,17.93
2022-09-25T14:59:43.532Z,17.40
2022-09-25T15:02:22.751Z,16.90
2022-09-25T15:04:51.143Z,17.77
2022-09-25T15:07:23.145Z,17.87
2022-09-25T15:09:55.252Z,17.00
2022-09-25T15:12:29.398Z,17.20
2022-09-25T15:15:11.421Z,17.40
2022-09-25T15:17:50.968Z,17.50
2022-09-25T15:20:21.615Z,17.73
2022-09-25T15:22:56.278Z,16.23
2022-09-25T15:25:53.917Z,16.93
2022-09-25T15:28:25.342Z,16.23
2022-09-25T15:30:56.023Z,16.60
2022-09-25T15:33:26.567Z,16.30
2022-09-25T15:36:24.169Z,16.47
2022-09-25T15:38:56.760Z,16.37
2022-09-25T15:41:23.925Z,17.40
2022-09-25T15:43:54.069Z,17.07
2022-09-25T15:46:38.428Z,17.40
2022-09-25T15:49:06.191Z,19.10
2022-09-25T15:51:35.597Z,16.97
2022-09-25T15:54:06.590Z,17.07
2022-09-25T15:56:51.098Z,17.93
2022-09-25T15:59:22.844Z,17.77
2022-09-25T16:02:09.050Z,18.40
2022-09-25T16:04:49.571Z,17.70
2022-09-25T16:07:37.817Z,17.23
2022-09-25T16:10:13.647Z,17.87
2022-09-25T16:12:45.961Z,17.13
2022-09-25T16:15:27.735Z,17.87
2022-09-25T16:18:05.947Z,17.00
2022-09-25T16:20:41.614Z,16.77
2022-09-25T16:23:29.896Z,17.73
2022-09-25T16:26:00.168Z,17.73
2022-09-25T16:28:34.027Z,19.30
2022-09-25T16:31:04.687Z,19.13
2022-09-25T16:33:42.636Z,18.67
2022-09-25T16:36:17.685Z,18.30
2022-09-25T16:39:12.656Z,18.33
2022-09-25T16:41:49.442Z,26.97
2022-09-25T16:44:22.384Z,21.13
2022-09-25T16:46:52.472Z,18.43
2022-09-25T16:49:22.272Z,17.70
2022-09-25T16:51:51.469Z,17.90
2022-09-25T16:54:21.490Z,17.67
2022-09-25T16:56:49.177Z,19.00
2022-09-25T16:59:22.752Z,18.33
2022-09-25T17:01:52.634Z,19.17
2022-09-25T17:04:26.104Z,19.33
2022-09-25T17:06:58.101Z,19.53
2022-09-25T17:09:27.386Z,19.90
2022-09-25T17:12:03.470Z,18.87
2022-09-25T17:14:30.712Z,19.83
2022-09-25T17:16:57.993Z,19.23
2022-09-25T17:19:25.679Z,20.13
2022-09-25T17:21:54.077Z,18.27
2022-09-25T17:24:23.917Z,18.47
2022-09-25T17:26:52.011Z,17.10
2022-09-25T17:29:20.292Z,16.97
2022-09-25T17:31:47.446Z,16.90
2022-09-25T17:34:21.018Z,19.20
2022-09-25T17:36:47.996Z,18.40
2022-09-25T17:39:15.046Z,17.87
2022-09-25T17:41:42.332Z,18.20
2022-09-25T17:44:21.756Z,18.00
2022-09-25T17:46:49.732Z,18.37
2022-09-25T17:49:17.299Z,19.10
2022-09-25T17:51:44.745Z,19.33
2022-09-25T17:54:13.367Z,19.87
2022-09-25T17:56:42.650Z,18.87
2022-09-25T17:59:09.855Z,21.03
2022-09-25T18:01:39.676Z,19.07
2022-09-25T18:04:20.052Z,20.03
2022-09-25T18:06:48.930Z,20.93
2022-09-25T18:09:16.337Z,20.70
2022-09-25T18:11:44.120Z,20.43
2022-09-25T18:14:12.923Z,20.53
2022-09-25T18:16:42.327Z,21.73
2022-09-25T18:19:38.650Z,22.43
2022-09-25T18:22:19.109Z,23.70
2022-09-25T18:24:56.758Z,23.07
2022-09-25T18:27:26.747Z,23.87
2022-09-25T18:29:54.252Z,23.50
2022-09-25T18:32:21.944Z,30.43
2022-09-25T18:34:48.929Z,24.63
2022-09-25T18:37:16.140Z,23.93
2022-09-25T18:39:44.626Z,25.20
2022-09-25T18:42:11.710Z,23.90
2022-09-25T18:44:42.692Z,25.53
2022-09-25T18:47:11.113Z,28.60
2022-09-25T18:49:38.139Z,28.47
2022-09-25T18:52:05.704Z,25.97
2022-09-25T18:54:32.739Z,31.23
2022-09-25T18:56:59.737Z,27.73
2022-09-25T18:59:27.024Z,25.70
2022-09-25T19:01:55.862Z,25.70
2022-09-25T19:04:23.242Z,26.83
2022-09-25T19:06:50.322Z,26.50
2022-09-25T19:09:17.711Z,26.47
2022-09-25T19:11:45.347Z,27.10
2022-09-25T19:14:14.743Z,27.10
2022-09-25T19:16:41.856Z,27.17
2022-09-25T19:19:09.296Z,25.63
2022-09-25T19:21:36.342Z,26.50
2022-09-25T19:24:03.534Z,27.30
2022-09-25T19:26:30.997Z,25.73
2022-09-25T19:28:57.997Z,26.30
2022-09-25T19:31:26.258Z,25.80
2022-09-25T19:33:54.851Z,26.57
2022-09-25T19:36:28.137Z,32.67
2022-09-25T19:38:55.105Z,27.17
2022-09-25T19:41:26.477Z,27.07
2022-09-25T19:43:57.139Z,27.00
2022-09-25T19:46:25.169Z,27.63
2022-09-25T19:48:52.666Z,29.77
2022-09-25T19:51:22.293Z,27.10
2022-09-25T19:53:49.690Z,29.20
2022-09-25T19:56:19.146Z,32.57
2022-09-25T19:58:50.908Z,31.00
2022-09-25T20:01:19.501Z,33.20
2022-09-25T20:03:46.607Z,33.67
2022-09-25T20:06:15.744Z,30.87
2022-09-25T20:08:42.727Z,33.83
2022-09-25T20:11:18.462Z,33.93
2022-09-25T20:13:47.251Z,34.03
2022-09-25T20:16:17.425Z,33.80
2022-09-25T20:18:53.611Z,33.33
2022-09-25T20:21:23.305Z,35.10
2022-09-25T20:23:55.085Z,33.97
2022-09-25T20:26:23.310Z,36.50
2022-09-25T20:28:57.046Z,33.23
2022-09-25T20:31:25.641Z,36.57
2022-09-25T20:33:53.097Z,35.63
2022-09-25T20:36:20.510Z,37.87
2022-09-25T20:38:54.199Z,37.87
2022-09-25T20:41:22.465Z,36.40
2022-09-25T20:43:55.489Z,40.27
2022-09-25T20:46:24.028Z,45.67
2022-09-25T20:48:52.582Z,39.63
2022-09-25T20:51:28.389Z,43.17
2022-09-25T20:53:58.261Z,40.77
2022-09-25T20:56:26.184Z,43.37
2022-09-25T20:58:55.637Z,41.57
2022-09-25T21:01:25.706Z,43.97
2022-09-25T21:03:53.356Z,39.27
2022-09-25T21:06:25.624Z,39.73
2022-09-25T21:08:58.122Z,41.13
2022-09-25T21:11:26.590Z,41.20
2022-09-25T21:13:58.062Z,42.20
2022-09-25T21:16:27.144Z,42.17
2022-09-25T21:18:56.740Z,39.93
2022-09-25T21:21:25.398Z,44.97
2022-09-25T21:23:54.792Z,43.00
2022-09-25T21:26:24.258Z,44.60
2022-09-25T21:28:52.669Z,39.53
2022-09-25T21:31:22.939Z,39.47
2022-09-25T21:33:54.766Z,46.70
2022-09-25T21:36:22.694Z,45.97
2022-09-25T21:38:50.090Z,39.77
2022-09-25T21:41:19.711Z,42.10
2022-09-25T21:43:47.203Z,40.10
2022-09-25T21:46:19.465Z,50.37
2022-09-25T21:49:01.874Z,41.60
2022-09-25T21:51:32.356Z,43.23
2022-09-25T21:54:01.020Z,41.00
2022-09-25T21:56:30.575Z,42.37
2022-09-25T21:59:01.873Z,40.43
2022-09-25T22:01:35.243Z,40.63
2022-09-25T22:04:03.756Z,40.47
2022-09-25T22:06:36.818Z,41.83
2022-09-25T22:09:16.430Z,38.47
2022-09-25T22:11:43.713Z,40.03
2022-09-25T22:14:15.787Z,39.90
2022-09-25T22:16:45.328Z,40.30
2022-09-25T22:19:21.992Z,42.40
2022-09-25T22:21:51.304Z,42.70
2022-09-25T22:24:18.697Z,47.47
2022-09-25T22:26:47.558Z,42.10
2022-09-25T22:29:16.535Z,45.13
2022-09-25T22:31:44.520Z,49.13
2022-09-25T22:34:20.998Z,44.60
2022-09-25T22:36:49.329Z,41.30
2022-09-25T22:39:18.509Z,41.83
2022-09-25T22:41:52.882Z,42.43
2022-09-25T22:44:20.860Z,49.73
2022-09-25T22:46:48.294Z,45.67
2022-09-25T22:49:15.385Z,42.83
2022-09-25T22:51:42.407Z,44.77
2022-09-25T22:54:12.872Z,44.87
2022-09-25T22:56:40.164Z,43.20
2022-09-25T22:59:10.152Z,48.63
2022-09-25T23:01:50.148Z,44.40
2022-09-25T23:04:20.543Z,42.63
2022-09-25T23:06:48.600Z,51.37
2022-09-25T23:09:19.081Z,53.80
2022-09-25T23:11:46.669Z,44.70
2022-09-25T23:14:26.242Z,48.50
2022-09-25T23:16:54.377Z,52.40
2022-09-25T23:19:22.269Z,54.30
2022-09-25T23:21:51.516Z,53.83
2022-09-25T23:24:20.712Z,51.43
2022-09-25T23:26:48.245Z,50.90
2022-09-25T23:29:17.518Z,54.17
2022-09-25T23:31:46.479Z,51.20
2022-09-25T23:34:14.243Z,56.53
2022-09-25T23:36:42.009Z,57.63
2022-09-25T23:39:10.753Z,53.27
2022-09-25T23:41:39.676Z,55.30
2022-09-25T23:44:08.513Z,50.83
2022-09-25T23:46:38.434Z,60.83
2022-09-25T23:49:06.827Z,53.97
2022-09-25T23:51:34.397Z,53.83
2022-09-25T23:54:02.414Z,55.40
2022-09-25T23:56:31.785Z,53.80
2022-09-25T23:59:01.257Z,60.50
